Time;durP1;ratioP1;P1;durP2;ratioP2;P2;SDS_P1;SDS_P2;PMS_P1;PMS_P2;Temp;Humidity;BMP_temperature;BMP_pressure;BME280_temperature;BME280_humidity;BME280_pressure;Samples;Min_cycle;Max_cycle;Signal;HPM_P1;HPM_P2
2022/06/09 00:01:14;;;;;;;4.78;3.20;;;21.10;99.90;;;;;;5016850;28;20172;-72
2022/06/09 00:03:46;;;;;;;4.05;3.60;;;21.10;99.90;;;;;;5016388;28;20211;-73
2022/06/09 00:06:14;;;;;;;3.78;2.97;;;21.10;99.90;;;;;;5034435;28;20208;-73
2022/06/09 00:08:47;;;;;;;3.72;3.20;;;21.30;99.90;;;;;;5033878;28;20234;-73
2022/06/09 00:11:17;;;;;;;3.40;2.50;;;21.40;99.90;;;;;;5034230;28;20612;-73
2022/06/09 00:13:44;;;;;;;3.33;2.72;;;21.40;99.90;;;;;;5034069;28;20165;-72
2022/06/09 00:16:10;;;;;;;5.40;2.38;;;21.30;99.90;;;;;;5003939;28;20641;-72
2022/06/09 00:18:36;;;;;;;4.32;2.53;;;21.30;99.90;;;;;;5015810;28;20219;-72
2022/06/09 00:21:02;;;;;;;3.03;2.40;;;21.30;99.90;;;;;;5033232;28;20201;-73
2022/06/09 00:23:28;;;;;;;2.75;2.47;;;21.30;99.90;;;;;;5033835;28;20204;-73
2022/06/09 00:25:54;;;;;;;2.53;2.33;;;21.30;99.90;;;;;;5016331;28;20258;-72
2022/06/09 00:28:20;;;;;;;3.38;2.40;;;21.20;99.90;;;;;;5034195;28;20633;-72
2022/06/09 00:30:46;;;;;;;2.53;2.33;;;21.10;99.90;;;;;;5033900;28;20712;-72
2022/06/09 00:33:12;;;;;;;3.63;2.50;;;21.20;99.90;;;;;;5016199;28;20579;-72
2022/06/09 00:35:37;;;;;;;2.90;2.22;;;21.20;99.90;;;;;;5033700;28;20220;-72
2022/06/09 00:38:03;;;;;;;1.98;1.88;;;21.20;99.90;;;;;;5033463;28;20220;-72
2022/06/09 00:40:29;;;;;;;2.97;2.30;;;21.10;99.90;;;;;;5034027;28;20200;-73
2022/06/09 00:42:55;;;;;;;3.78;2.53;;;21.10;99.90;;;;;;5033831;28;20208;-73
2022/06/09 00:45:35;;;;;;;2.20;2.00;;;21.10;99.90;;;;;;5020281;28;20206;-72
2022/06/09 00:48:23;;;;;;;2.20;2.10;;;21.10;99.90;;;;;;5021131;28;20656;-72
2022/06/09 00:51:01;;;;;;;2.60;2.40;;;21.10;99.90;;;;;;5015810;28;20199;-72
2022/06/09 00:53:34;;;;;;;3.58;2.42;;;21.10;99.90;;;;;;5033369;28;20208;-73
2022/06/09 00:56:02;;;;;;;2.65;2.45;;;21.00;99.90;;;;;;5033591;28;20220;-73
2022/06/09 00:58:32;;;;;;;3.85;2.40;;;21.00;99.90;;;;;;5033215;28;20199;-74
2022/06/09 01:01:04;;;;;;;2.33;1.98;;;20.90;99.90;;;;;;5016008;28;20218;-73
2022/06/09 01:03:36;;;;;;;7.05;2.17;;;20.90;99.90;;;;;;5033156;28;20291;-73
2022/06/09 01:06:06;;;;;;;4.47;2.55;;;20.90;99.90;;;;;;5033344;28;20263;-73
2022/06/09 01:08:35;;;;;;;3.60;2.90;;;20.70;99.90;;;;;;5032755;28;20778;-72
2022/06/09 01:11:03;;;;;;;4.93;2.30;;;20.70;99.90;;;;;;5033285;28;20266;-73
2022/06/09 01:13:30;;;;;;;3.03;2.70;;;20.70;99.90;;;;;;5033326;28;20226;-73
2022/06/09 01:16:12;;;;;;;2.78;2.45;;;20.60;99.90;;;;;;5020501;28;20250;-73
2022/06/09 01:18:42;;;;;;;3.65;2.88;;;20.70;99.90;;;;;;5032453;28;20680;-73
2022/06/09 01:21:45;;;;;;;3.08;2.78;;;20.70;99.90;;;;;;5033113;28;20210;-73
2022/06/09 01:24:22;;;;;;;4.15;2.83;;;20.60;99.90;;;;;;5032961;28;20246;-72
2022/06/09 01:27:03;;;;;;;3.10;2.80;;;20.60;99.90;;;;;;5032848;28;20196;-72
2022/06/09 01:30:07;;;;;;;3.55;2.75;;;20.60;99.90;;;;;;5032330;28;20222;-72
2022/06/09 01:32:38;;;;;;;4.22;3.42;;;20.60;99.90;;;;;;4974681;28;20235;-72
2022/06/09 01:35:32;;;;;;;11.93;8.68;;;20.50;99.90;;;;;;5032730;28;20681;-72
2022/06/09 01:37:59;;;;;;;2.45;2.25;;;20.50;99.90;;;;;;5032485;28;20728;-72
2022/06/09 01:40:25;;;;;;;3.47;2.47;;;20.50;99.90;;;;;;5032707;28;20195;-72
2022/06/09 01:42:57;;;;;;;4.03;2.67;;;20.50;99.90;;;;;;5032619;28;20208;-72
2022/06/09 01:45:37;;;;;;;3.15;2.20;;;20.50;99.90;;;;;;5001739;28;20206;-72
2022/06/09 01:48:05;;;;;;;3.70;2.20;;;20.50;99.90;;;;;;5014375;28;20200;-71
2022/06/09 01:50:33;;;;;;;2.35;1.95;;;20.50;99.90;;;;;;5032238;28;20216;-72
2022/06/09 01:53:04;;;;;;;3.00;2.13;;;20.40;99.90;;;;;;5032591;28;20279;-72
2022/06/09 01:55:31;;;;;;;2.97;1.95;;;20.40;99.90;;;;;;5032624;28;20173;-73
2022/06/09 01:58:00;;;;;;;3.97;2.33;;;20.30;99.90;;;;;;5031272;28;20259;-72
2022/06/09 02:00:28;;;;;;;2.92;2.22;;;20.30;99.90;;;;;;5031939;28;20219;-73
2022/06/09 02:03:01;;;;;;;2.75;2.05;;;20.30;99.90;;;;;;5032200;28;20330;-72
2022/06/09 02:05:32;;;;;;;4.15;2.20;;;20.30;99.90;;;;;;4988601;28;20209;-72
2022/06/09 02:08:02;;;;;;;2.00;1.80;;;20.30;99.90;;;;;;4988637;28;20351;-72
2022/06/09 02:10:27;;;;;;;3.30;2.10;;;20.40;99.90;;;;;;5046021;23;20215;-75
2022/06/09 02:12:55;;;;;;;1.60;1.50;;;20.30;99.90;;;;;;5031741;28;20201;-75
2022/06/09 02:15:27;;;;;;;2.78;2.13;;;20.20;99.90;;;;;;5030234;28;20196;-75
2022/06/09 02:17:53;;;;;;;2.38;1.70;;;20.20;99.90;;;;;;5031328;28;20243;-74
2022/06/09 02:20:21;;;;;;;3.00;2.42;;;20.10;99.90;;;;;;5017437;28;20701;-74
2022/06/09 02:22:46;;;;;;;3.70;2.33;;;20.00;99.90;;;;;;5010583;28;20176;-75
2022/06/09 02:25:12;;;;;;;5.35;1.83;;;20.10;99.90;;;;;;5012169;28;20544;-74
2022/06/09 02:27:38;;;;;;;2.55;2.03;;;20.10;99.90;;;;;;5011140;28;20208;-76
2022/06/09 02:30:04;;;;;;;2.15;1.95;;;20.00;99.90;;;;;;5009975;28;20213;-74
2022/06/09 02:32:32;;;;;;;3.72;1.92;;;20.00;99.90;;;;;;5011310;28;20240;-74
2022/06/09 02:34:58;;;;;;;2.40;1.77;;;20.00;99.90;;;;;;5010270;28;20236;-74
2022/06/09 02:37:24;;;;;;;2.45;2.03;;;19.90;99.90;;;;;;5012261;28;20169;-76
2022/06/09 02:39:49;;;;;;;3.60;2.00;;;19.90;99.90;;;;;;5009716;28;20220;-74
2022/06/09 02:42:15;;;;;;;2.63;1.75;;;19.90;99.90;;;;;;5013794;28;20204;-74
2022/06/09 02:44:40;;;;;;;4.07;2.22;;;19.80;99.90;;;;;;5011356;28;20241;-74
2022/06/09 02:47:06;;;;;;;4.68;1.90;;;19.80;99.90;;;;;;5010320;28;20216;-74
2022/06/09 02:49:31;;;;;;;1.80;1.70;;;19.80;99.90;;;;;;5009581;28;20192;-74
2022/06/09 02:51:57;;;;;;;4.82;2.10;;;19.80;99.90;;;;;;5012451;28;20169;-74
2022/06/09 02:54:23;;;;;;;2.20;2.00;;;19.80;99.90;;;;;;5010397;28;20228;-73
2022/06/09 02:56:48;;;;;;;3.17;2.15;;;19.80;99.90;;;;;;5011870;28;20677;-74
2022/06/09 02:59:14;;;;;;;4.55;2.10;;;19.80;99.90;;;;;;5009366;28;20221;-74
2022/06/09 03:01:40;;;;;;;3.30;2.30;;;19.70;99.90;;;;;;5009574;28;20185;-75
2022/06/09 03:04:07;;;;;;;3.95;2.40;;;19.70;99.90;;;;;;5010332;28;20173;-74
2022/06/09 03:06:33;;;;;;;3.33;2.85;;;19.60;99.90;;;;;;5011149;28;20213;-73
2022/06/09 03:08:59;;;;;;;3.97;2.50;;;19.60;99.90;;;;;;5008917;28;20571;-72
2022/06/09 03:11:25;;;;;;;6.13;2.47;;;19.60;99.90;;;;;;5014412;28;20220;-74
2022/06/09 03:13:51;;;;;;;3.17;2.53;;;19.60;99.90;;;;;;5009919;28;20228;-74
2022/06/09 03:16:17;;;;;;;4.38;2.50;;;19.40;99.90;;;;;;5011436;28;20196;-75
2022/06/09 03:18:44;;;;;;;3.38;2.42;;;19.50;99.90;;;;;;5009131;28;20208;-74
2022/06/09 03:21:14;;;;;;;3.22;2.70;;;19.50;99.90;;;;;;4993523;28;20221;-74
2022/06/09 03:23:39;;;;;;;5.45;2.33;;;19.50;99.90;;;;;;5009593;28;20215;-73
2022/06/09 03:26:06;;;;;;;4.50;2.70;;;19.60;99.90;;;;;;5009280;28;20213;-74
2022/06/09 03:28:32;;;;;;;3.72;2.67;;;19.60;99.90;;;;;;5009177;28;20239;-74
2022/06/09 03:30:59;;;;;;;3.00;2.47;;;19.70;99.90;;;;;;5011323;28;20205;-73
2022/06/09 03:33:24;;;;;;;4.63;2.40;;;19.70;99.90;;;;;;5009215;28;20296;-73
2022/06/09 03:35:50;;;;;;;3.30;2.35;;;19.70;99.90;;;;;;5009549;28;20287;-73
2022/06/09 03:38:16;;;;;;;3.85;2.40;;;19.70;99.90;;;;;;5010513;28;20598;-72
2022/06/09 03:40:41;;;;;;;3.80;2.40;;;19.80;99.90;;;;;;5014028;28;20193;-72
2022/06/09 03:43:07;;;;;;;3.97;2.58;;;20.00;99.90;;;;;;5011269;28;20256;-72
2022/06/09 03:45:33;;;;;;;2.63;2.03;;;20.60;99.90;;;;;;5010690;28;20242;-73
2022/06/09 03:47:59;;;;;;;4.50;2.35;;;21.50;99.90;;;;;;5010730;28;20804;-73
2022/06/09 03:50:27;;;;;;;3.63;2.13;;;22.70;99.90;;;;;;5009149;28;20220;-73
2022/06/09 03:52:52;;;;;;;3.15;1.83;;;24.10;99.90;;;;;;5009339;28;20219;-72
2022/06/09 03:55:19;;;;;;;4.75;2.10;;;25.10;99.90;;;;;;5009894;28;20181;-73
2022/06/09 03:57:44;;;;;;;3.63;2.20;;;25.90;99.90;;;;;;5010326;28;20197;-73
2022/06/09 04:00:16;;;;;;;4.03;2.10;;;26.50;99.90;;;;;;5009094;28;20331;-73
2022/06/09 04:02:42;;;;;;;4.65;2.00;;;27.20;99.90;;;;;;5010303;28;20682;-73
2022/06/09 04:05:08;;;;;;;4.47;2.22;;;27.80;99.90;;;;;;5009286;28;20228;-73
2022/06/09 04:07:34;;;;;;;4.30;2.08;;;28.00;99.90;;;;;;5008978;28;20238;-74
2022/06/09 04:09:59;;;;;;;3.05;1.90;;;28.60;99.90;;;;;;5010210;28;20212;-73
2022/06/09 04:12:25;;;;;;;2.85;1.80;;;29.00;99.90;;;;;;5011326;28;20580;-74
2022/06/09 04:14:51;;;;;;;1.83;1.60;;;29.10;99.90;;;;;;5010394;28;20201;-74
2022/06/09 04:17:17;;;;;;;2.22;1.50;;;29.00;99.90;;;;;;5010339;28;20259;-75
2022/06/09 04:19:43;;;;;;;3.17;1.65;;;28.90;99.90;;;;;;5014196;28;20200;-73
2022/06/09 04:22:08;;;;;;;2.25;1.67;;;28.70;99.90;;;;;;5031919;28;20165;-74
2022/06/09 04:24:34;;;;;;;4.03;1.40;;;29.10;99.90;;;;;;5033887;28;20571;-74
2022/06/09 04:27:00;;;;;;;3.88;1.90;;;29.10;99.90;;;;;;5032413;28;20211;-75
2022/06/09 04:29:27;;;;;;;4.82;1.42;;;29.20;99.90;;;;;;5032167;28;20219;-75
2022/06/09 04:31:53;;;;;;;2.13;1.40;;;29.30;99.90;;;;;;5032595;28;20258;-73
2022/06/09 04:34:18;;;;;;;2.88;1.75;;;30.10;99.90;;;;;;5033113;28;20176;-74
2022/06/09 04:36:44;;;;;;;3.55;1.67;;;30.80;99.90;;;;;;5032351;28;20211;-75
2022/06/09 04:39:10;;;;;;;2.75;2.03;;;31.00;99.90;;;;;;5065202;28;20639;-74
2022/06/09 04:41:37;;;;;;;2.72;2.25;;;31.50;99.90;;;;;;5032115;28;20346;-74
2022/06/09 04:44:03;;;;;;;4.90;2.65;;;31.60;99.90;;;;;;5032130;28;20223;-75
2022/06/09 04:46:29;;;;;;;4.15;2.42;;;32.10;99.90;;;;;;5034287;28;20605;-75
2022/06/09 04:48:55;;;;;;;3.67;2.28;;;32.90;99.90;;;;;;5031691;28;20279;-76
2022/06/09 04:51:23;;;;;;;5.55;1.80;;;33.10;99.90;;;;;;5031552;28;20314;-74
2022/06/09 04:53:49;;;;;;;3.95;2.08;;;33.10;99.90;;;;;;5031973;28;20207;-75
2022/06/09 04:56:17;;;;;;;3.45;1.90;;;33.50;99.00;;;;;;5032088;28;20214;-74
2022/06/09 04:58:43;;;;;;;5.10;1.85;;;33.90;98.10;;;;;;5032764;28;20279;-74
2022/06/09 05:01:28;;;;;;;3.13;1.77;;;34.60;96.80;;;;;;5032313;28;20204;-75
2022/06/09 05:03:54;;;;;;;3.33;1.95;;;34.30;96.00;;;;;;5031701;28;20208;-75
2022/06/09 05:06:22;;;;;;;3.17;1.70;;;34.30;95.60;;;;;;5031847;28;20226;-74
2022/06/09 05:08:51;;;;;;;2.92;1.55;;;34.20;94.80;;;;;;5031284;28;20199;-74
2022/06/09 05:11:17;;;;;;;2.58;1.50;;;31.90;96.10;;;;;;5033146;28;20223;-74
2022/06/09 05:13:44;;;;;;;3.60;1.63;;;30.00;99.00;;;;;;5031538;28;20172;-73
2022/06/09 05:16:10;;;;;;;3.05;1.38;;;28.20;99.90;;;;;;5033423;28;20181;-74
2022/06/09 05:18:37;;;;;;;3.75;1.60;;;27.00;99.90;;;;;;5032145;28;20269;-74
2022/06/09 05:21:04;;;;;;;2.38;1.30;;;25.90;99.90;;;;;;5030880;28;20204;-73
2022/06/09 05:23:30;;;;;;;3.30;1.30;;;25.10;99.90;;;;;;5032722;28;20212;-75
2022/06/09 05:25:59;;;;;;;2.05;1.27;;;24.40;99.90;;;;;;5032781;28;20208;-74
2022/06/09 05:28:27;;;;;;;2.72;1.08;;;23.70;99.90;;;;;;5031564;28;20191;-74
2022/06/09 05:30:53;;;;;;;2.90;1.23;;;23.40;99.90;;;;;;5031260;28;20208;-73
2022/06/09 05:33:19;;;;;;;2.45;1.05;;;23.00;99.90;;;;;;5031183;28;20208;-74
2022/06/09 05:35:45;;;;;;;2.42;0.93;;;23.00;99.90;;;;;;5064301;28;20231;-74
2022/06/09 05:46:31;;;;;;;0.88;0.85;;;22.00;99.90;;;;;;5033115;28;20273;-74
2022/06/09 05:48:57;;;;;;;3.22;1.10;;;21.90;99.90;;;;;;5032231;28;20216;-75
2022/06/09 05:51:23;;;;;;;1.80;1.00;;;21.70;99.90;;;;;;5029938;28;20220;-78
2022/06/09 05:53:49;;;;;;;1.85;1.30;;;21.80;99.90;;;;;;5030918;28;20739;-74
2022/06/09 05:56:16;;;;;;;3.97;1.10;;;21.70;99.90;;;;;;5031019;28;20212;-73
2022/06/09 05:58:41;;;;;;;2.33;1.05;;;21.80;99.90;;;;;;5030215;28;20304;-75
2022/06/09 06:01:10;;;;;;;3.53;1.25;;;21.60;99.90;;;;;;5031012;28;20196;-74
2022/06/09 06:03:37;;;;;;;1.77;0.98;;;21.70;99.90;;;;;;5030389;28;20200;-75
2022/06/09 06:08:47;;;;;;;3.28;1.30;;;22.00;99.90;;;;;;5031723;28;20618;-74
2022/06/09 06:11:14;;;;;;;3.00;1.20;;;22.10;99.90;;;;;;5031840;28;20220;-75
2022/06/09 06:13:41;;;;;;;1.40;1.02;;;22.10;99.90;;;;;;5030189;28;20176;-75
2022/06/09 06:16:06;;;;;;;4.20;1.48;;;22.00;99.90;;;;;;5030875;28;20180;-77
2022/06/09 06:18:32;;;;;;;4.15;1.35;;;21.90;99.90;;;;;;5030117;28;20721;-75
2022/06/09 06:20:58;;;;;;;2.80;1.10;;;21.90;99.90;;;;;;5022557;28;20274;-75
2022/06/09 06:23:24;;;;;;;4.25;1.15;;;22.00;99.90;;;;;;5027377;28;20297;-72
2022/06/09 06:25:52;;;;;;;2.65;1.10;;;22.20;99.90;;;;;;5029523;28;20192;-74
2022/06/09 06:28:17;;;;;;;2.40;1.15;;;22.30;99.90;;;;;;5061276;28;20241;-75
2022/06/09 06:30:43;;;;;;;1.75;1.35;;;22.10;99.90;;;;;;5030295;28;20311;-74
2022/06/09 06:33:08;;;;;;;3.38;1.90;;;22.50;99.90;;;;;;5024563;28;20213;-72
2022/06/09 06:35:34;;;;;;;4.30;1.55;;;22.60;99.90;;;;;;5029572;28;20247;-74
2022/06/09 06:38:00;;;;;;;7.82;1.50;;;22.90;99.90;;;;;;5023463;28;20220;-75
2022/06/09 06:40:26;;;;;;;4.82;3.05;;;23.00;99.90;;;;;;5031687;28;20197;-76
2022/06/09 06:42:52;;;;;;;4.18;2.00;;;23.30;99.90;;;;;;5029923;28;20287;-76
2022/06/09 06:45:18;;;;;;;1.52;1.10;;;23.40;99.90;;;;;;5030632;28;20349;-76
2022/06/09 06:47:43;;;;;;;5.90;1.55;;;23.50;99.90;;;;;;5030570;28;20208;-76
2022/06/09 06:50:11;;;;;;;3.67;1.30;;;23.60;99.90;;;;;;5030442;28;20651;-75
2022/06/09 06:52:38;;;;;;;5.38;1.77;;;23.80;99.90;;;;;;5063050;28;20188;-76
2022/06/09 06:55:05;;;;;;;3.25;1.48;;;23.80;99.90;;;;;;5031640;28;20222;-76
2022/06/09 06:57:33;;;;;;;3.80;1.35;;;23.90;99.90;;;;;;5030839;28;20727;-76
2022/06/09 06:59:58;;;;;;;3.90;1.30;;;23.90;99.90;;;;;;5030577;28;20688;-75
2022/06/09 07:02:24;;;;;;;4.25;1.50;;;23.80;99.90;;;;;;5029659;28;20216;-76
2022/06/09 07:04:50;;;;;;;3.05;1.40;;;23.50;99.90;;;;;;5029457;28;20216;-76
2022/06/09 07:07:15;;;;;;;2.20;1.40;;;23.40;99.90;;;;;;5031122;28;20180;-75
2022/06/09 07:09:41;;;;;;;3.33;1.60;;;23.40;99.90;;;;;;5030170;28;20224;-76
2022/06/09 07:12:06;;;;;;;3.30;1.67;;;23.30;99.90;;;;;;5030964;28;20204;-76
2022/06/09 07:14:33;;;;;;;2.97;1.52;;;23.20;99.90;;;;;;5030897;28;20235;-74
2022/06/09 07:17:00;;;;;;;2.50;1.58;;;22.90;99.90;;;;;;5031148;28;20204;-75
2022/06/09 07:19:26;;;;;;;3.25;1.73;;;22.70;99.90;;;;;;5030129;28;20204;-75
2022/06/09 07:21:52;;;;;;;1.83;1.52;;;22.30;99.90;;;;;;5030737;28;20219;-76
2022/06/09 07:24:18;;;;;;;5.32;1.80;;;22.20;99.90;;;;;;5030770;28;20564;-75
2022/06/09 07:26:44;;;;;;;2.05;1.35;;;22.10;99.90;;;;;;5030529;28;20545;-75
2022/06/09 07:29:10;;;;;;;2.10;1.55;;;21.70;99.90;;;;;;5030225;28;20208;-75
2022/06/09 07:31:37;;;;;;;3.08;1.92;;;21.50;99.90;;;;;;5030413;28;20190;-75
2022/06/09 07:34:03;;;;;;;3.97;1.70;;;21.50;99.90;;;;;;5036325;28;20172;-75
2022/06/09 07:36:28;;;;;;;4.13;2.20;;;21.40;99.90;;;;;;5019543;28;20201;-75
2022/06/09 07:38:54;;;;;;;3.05;1.58;;;21.50;99.90;;;;;;5016830;28;20705;-76
2022/06/09 07:41:20;;;;;;;4.43;2.13;;;21.50;99.90;;;;;;5018413;28;20681;-75
2022/06/09 07:43:48;;;;;;;4.63;2.10;;;21.50;99.90;;;;;;5038630;28;20700;-75
2022/06/09 07:46:14;;;;;;;3.50;1.83;;;21.40;99.90;;;;;;5050759;28;20637;-75
2022/06/09 07:48:40;;;;;;;3.58;1.83;;;21.30;99.90;;;;;;5049842;28;20208;-72
2022/06/09 07:51:06;;;;;;;5.25;2.47;;;21.30;99.90;;;;;;5031790;28;20253;-75
2022/06/09 07:53:31;;;;;;;5.78;2.47;;;21.20;99.90;;;;;;5049834;28;20764;-74
2022/06/09 07:55:57;;;;;;;3.05;1.52;;;21.20;99.90;;;;;;5052346;28;20199;-74
2022/06/09 07:58:22;;;;;;;5.57;2.05;;;21.10;99.90;;;;;;5053692;28;20192;-75
2022/06/09 08:00:49;;;;;;;4.57;1.92;;;20.90;99.90;;;;;;5035894;28;20207;-79
2022/06/09 08:03:26;;;;;;;4.20;1.63;;;20.80;99.90;;;;;;5054236;28;20195;-78
2022/06/09 08:05:53;;;;;;;2.75;1.63;;;20.70;99.90;;;;;;5037546;28;20203;-78
2022/06/09 08:08:19;;;;;;;4.60;2.08;;;20.40;99.90;;;;;;5054249;28;20204;-79
2022/06/09 08:10:45;;;;;;;3.63;2.47;;;20.60;99.90;;;;;;5054717;28;20218;-78
2022/06/09 08:13:12;;;;;;;2.90;1.83;;;20.60;99.90;;;;;;5050742;22;20418;-73
2022/06/09 08:15:40;;;;;;;5.25;2.30;;;20.50;99.90;;;;;;5051160;28;20238;-73
2022/06/09 08:18:06;;;;;;;5.05;2.25;;;20.50;99.90;;;;;;5053404;28;20211;-74
2022/06/09 08:20:34;;;;;;;6.55;2.40;;;20.60;99.90;;;;;;5052250;28;20563;-73
2022/06/09 08:23:02;;;;;;;7.57;2.55;;;20.70;99.90;;;;;;5034122;28;20226;-73
2022/06/09 08:25:27;;;;;;;4.32;2.10;;;20.70;99.90;;;;;;5052619;28;20620;-73
2022/06/09 08:27:53;;;;;;;3.83;1.88;;;20.50;99.90;;;;;;5039211;28;20207;-72
2022/06/09 08:30:19;;;;;;;2.58;2.20;;;20.30;99.90;;;;;;5074036;28;20195;-72
2022/06/09 08:32:45;;;;;;;2.72;1.80;;;20.20;99.90;;;;;;5055658;28;20195;-73
2022/06/09 08:35:16;;;;;;;4.47;2.17;;;20.10;99.90;;;;;;5073866;28;20206;-73
2022/06/09 08:37:42;;;;;;;5.15;2.10;;;20.10;99.90;;;;;;5073706;28;20620;-72
2022/06/09 08:40:14;;;;;;;2.83;2.17;;;20.20;99.90;;;;;;5073979;28;20177;-73
2022/06/09 08:43:06;;;;;;;6.03;2.22;;;20.20;99.90;;;;;;5073630;28;20353;-73
2022/06/09 08:45:38;;;;;;;2.65;2.20;;;20.30;99.90;;;;;;5073907;28;20199;-73
2022/06/09 08:48:06;;;;;;;2.97;1.90;;;20.40;99.90;;;;;;5074180;28;20195;-73
2022/06/09 08:50:37;;;;;;;4.88;2.67;;;20.40;99.90;;;;;;5081939;28;20203;-72
2022/06/09 08:53:23;;;;;;;4.97;2.13;;;20.30;99.90;;;;;;5088707;28;20213;-73
2022/06/09 08:55:49;;;;;;;5.53;2.03;;;20.30;99.90;;;;;;5056991;28;20194;-72
2022/06/09 08:58:26;;;;;;;4.40;2.80;;;20.40;99.90;;;;;;5073218;28;20242;-72
2022/06/09 09:01:05;;;;;;;4.50;2.55;;;20.40;99.90;;;;;;5065999;28;20209;-72
2022/06/09 09:03:48;;;;;;;2.47;2.05;;;20.50;99.90;;;;;;5073209;28;20708;-72
2022/06/09 09:06:16;;;;;;;3.75;2.50;;;20.50;99.90;;;;;;5073218;28;20248;-73
2022/06/09 09:08:42;;;;;;;3.45;2.80;;;20.50;99.90;;;;;;5072580;28;20202;-73
2022/06/09 09:11:39;;;;;;;3.42;2.10;;;20.60;99.90;;;;;;5073208;28;20757;-72
2022/06/09 09:14:12;;;;;;;2.90;2.08;;;20.70;99.90;;;;;;5067270;28;20246;-73
2022/06/09 09:17:01;;;;;;;4.68;2.80;;;20.80;99.90;;;;;;5054934;28;20670;-72
2022/06/09 09:19:56;;;;;;;3.88;2.55;;;21.10;99.90;;;;;;5073210;28;20207;-73
2022/06/09 09:22:50;;;;;;;3.55;2.75;;;21.10;99.90;;;;;;5071345;28;20211;-72
2022/06/09 09:25:40;;;;;;;3.03;2.00;;;21.20;99.90;;;;;;5073581;28;20199;-73
2022/06/09 09:28:17;;;;;;;3.83;2.60;;;21.40;99.90;;;;;;5055125;28;20202;-72
2022/06/09 09:30:49;;;;;;;5.25;2.10;;;21.60;99.90;;;;;;5072707;28;20708;-72
2022/06/09 09:33:20;;;;;;;5.93;2.90;;;21.30;99.90;;;;;;5072529;28;20295;-72
2022/06/09 09:35:49;;;;;;;4.68;2.42;;;21.40;99.90;;;;;;5072483;28;20696;-72
2022/06/09 09:38:18;;;;;;;7.30;2.58;;;21.50;99.90;;;;;;5053937;28;20275;-72
2022/06/09 09:40:49;;;;;;;9.07;2.08;;;21.50;99.90;;;;;;5072182;28;20206;-72
2022/06/09 09:43:24;;;;;;;3.47;2.20;;;21.50;99.90;;;;;;5073145;28;20687;-73
2022/06/09 09:45:56;;;;;;;3.90;2.90;;;21.30;99.90;;;;;;5065534;28;20612;-73
2022/06/09 09:48:22;;;;;;;3.63;2.33;;;21.10;99.90;;;;;;5072560;28;20718;-72
2022/06/09 09:51:12;;;;;;;4.53;2.58;;;21.00;99.90;;;;;;5072822;28;20222;-72
2022/06/09 09:53:47;;;;;;;3.78;2.95;;;21.10;99.90;;;;;;5044658;28;20706;-73
2022/06/09 09:56:16;;;;;;;3.55;2.55;;;21.20;99.90;;;;;;5054818;28;20205;-73
2022/06/09 09:58:47;;;;;;;5.75;2.70;;;21.30;99.90;;;;;;5054163;28;20578;-73
2022/06/09 10:01:24;;;;;;;3.78;2.50;;;21.50;99.90;;;;;;5072732;28;20175;-73
2022/06/09 10:09:39;;;;;;;7.28;4.38;;;21.70;99.90;;;;;;5071760;28;20210;-73
2022/06/09 10:12:23;;;;;;;8.32;4.97;;;21.70;99.90;;;;;;5071752;28;20215;-72
2022/06/09 10:15:02;;;;;;;6.57;3.65;;;21.80;99.90;;;;;;5046289;28;20207;-73
2022/06/09 10:17:59;;;;;;;6.38;3.15;;;22.10;99.90;;;;;;5071848;28;20203;-73
2022/06/09 10:20:38;;;;;;;3.40;2.40;;;22.30;99.90;;;;;;5068627;28;20211;-73
2022/06/09 10:23:06;;;;;;;11.60;4.30;;;22.30;99.90;;;;;;5071803;28;20242;-72
2022/06/09 10:25:55;;;;;;;12.20;4.00;;;22.60;99.90;;;;;;5071807;28;20175;-73
2022/06/09 10:28:39;;;;;;;8.20;5.43;;;22.70;99.90;;;;;;5053525;28;20178;-74
2022/06/09 10:31:28;;;;;;;4.80;3.47;;;22.60;99.90;;;;;;5071100;28;20201;-72
2022/06/09 10:34:34;;;;;;;8.57;3.30;;;22.50;99.90;;;;;;5056277;28;20207;-75
2022/06/09 10:37:10;;;;;;;4.88;3.30;;;22.50;99.90;;;;;;5060208;28;20206;-73
2022/06/09 10:39:57;;;;;;;4.50;3.47;;;22.20;99.90;;;;;;5053580;28;20214;-73
2022/06/09 10:42:29;;;;;;;6.95;3.55;;;22.20;99.90;;;;;;5053574;28;20213;-74
2022/06/09 10:45:08;;;;;;;6.60;3.20;;;22.00;99.90;;;;;;5053561;28;20202;-75
2022/06/09 10:57:00;;;;;;;5.60;3.17;;;22.20;99.90;;;;;;5071175;28;20252;-75
2022/06/09 10:59:52;;;;;;;6.70;3.60;;;22.10;99.90;;;;;;5070701;28;20223;-75
2022/06/09 11:02:21;;;;;;;4.78;3.55;;;22.10;99.90;;;;;;5070433;28;20207;-74
2022/06/09 11:04:48;;;;;;;6.22;4.63;;;21.90;99.90;;;;;;5070536;28;20257;-75
2022/06/09 11:07:23;;;;;;;7.13;3.90;;;22.00;99.90;;;;;;5053033;28;20185;-75
2022/06/09 11:10:13;;;;;;;6.18;3.83;;;21.90;99.90;;;;;;5049905;28;20194;-75
2022/06/09 11:12:56;;;;;;;5.95;3.47;;;22.00;99.90;;;;;;5069077;28;20215;-75
2022/06/09 11:15:39;;;;;;;5.28;3.45;;;22.10;99.90;;;;;;5052279;28;20214;-75
2022/06/09 11:18:23;;;;;;;5.35;3.25;;;22.10;99.90;;;;;;5069923;28;20560;-75
2022/06/09 11:20:54;;;;;;;6.63;3.75;;;22.20;99.90;;;;;;5067872;28;20190;-75
2022/06/09 11:23:38;;;;;;;5.70;3.97;;;22.20;99.90;;;;;;5052316;28;20229;-74
2022/06/09 11:26:28;;;;;;;8.13;4.03;;;22.20;99.90;;;;;;5069960;28;20275;-73
2022/06/09 11:29:03;;;;;;;8.07;5.45;;;22.30;99.90;;;;;;5068315;28;20233;-75
2022/06/09 11:31:38;;;;;;;8.05;4.35;;;22.30;99.90;;;;;;5068491;28;20197;-74
2022/06/09 11:34:29;;;;;;;7.72;4.90;;;22.30;99.90;;;;;;5070170;28;20202;-73
2022/06/09 11:37:15;;;;;;;7.32;4.32;;;22.10;99.90;;;;;;5063745;28;20681;-73
2022/06/09 11:39:52;;;;;;;7.75;4.10;;;21.80;99.90;;;;;;5068865;28;20218;-73
2022/06/09 11:42:38;;;;;;;5.55;4.05;;;21.90;99.90;;;;;;5070476;28;20756;-73
2022/06/09 11:45:23;;;;;;;4.03;3.05;;;21.90;99.90;;;;;;5070663;28;20225;-72
2022/06/09 11:47:51;;;;;;;3.75;3.45;;;21.90;99.90;;;;;;5070413;28;20202;-74
2022/06/09 11:50:21;;;;;;;4.30;3.65;;;21.90;99.90;;;;;;5052518;28;20213;-74
2022/06/09 11:52:49;;;;;;;4.35;3.40;;;22.00;99.90;;;;;;5052148;28;20197;-73
2022/06/09 11:55:57;;;;;;;5.05;3.53;;;22.00;99.90;;;;;;5071206;28;20189;-74
2022/06/09 11:58:33;;;;;;;5.47;3.88;;;22.00;99.90;;;;;;5070474;28;20288;-74
2022/06/09 12:01:08;;;;;;;7.75;3.72;;;21.90;99.90;;;;;;5070535;28;20691;-74
2022/06/09 12:03:47;;;;;;;5.03;3.58;;;22.00;99.90;;;;;;5052100;28;20221;-74
2022/06/09 12:06:43;;;;;;;9.82;3.95;;;22.10;99.90;;;;;;5070467;28;20207;-74
2022/06/09 12:09:42;;;;;;;9.98;7.47;;;22.00;99.90;;;;;;5070120;28;20697;-74
2022/06/09 12:12:26;;;;;;;11.52;6.32;;;21.90;99.90;;;;;;5052088;28;20209;-74
2022/06/09 12:15:14;;;;;;;9.13;6.63;;;22.00;99.90;;;;;;5052202;28;20237;-74
2022/06/09 12:17:54;;;;;;;8.45;5.53;;;22.10;99.90;;;;;;5052231;28;20215;-74
2022/06/09 12:20:35;;;;;;;7.78;4.18;;;22.10;99.90;;;;;;5052164;28;20206;-73
2022/06/09 12:23:18;;;;;;;6.40;4.38;;;22.30;99.90;;;;;;5052039;28;20203;-73
2022/06/09 12:25:44;;;;;;;6.75;4.30;;;22.20;99.90;;;;;;5070250;28;20653;-73
2022/06/09 12:28:55;;;;;;;7.20;4.40;;;22.30;99.90;;;;;;5070382;28;20179;-74
2022/06/09 12:31:37;;;;;;;4.63;3.40;;;22.20;99.90;;;;;;5052682;28;20226;-73
2022/06/09 12:34:12;;;;;;;6.60;4.03;;;22.40;99.90;;;;;;5071053;28;20554;-73
2022/06/09 12:36:47;;;;;;;5.47;4.03;;;22.50;99.90;;;;;;5051844;28;20536;-73
2022/06/09 12:39:15;;;;;;;7.80;5.07;;;22.60;99.90;;;;;;5069920;28;20285;-74
2022/06/09 12:41:43;;;;;;;9.38;5.25;;;22.80;99.90;;;;;;5070261;28;20211;-74
2022/06/09 12:44:22;;;;;;;6.75;5.13;;;22.60;99.90;;;;;;5055657;28;20215;-73
2022/06/09 12:47:12;;;;;;;9.88;5.13;;;22.40;99.90;;;;;;5055917;28;20195;-74
2022/06/09 12:49:39;;;;;;;9.35;5.75;;;22.30;99.90;;;;;;5073907;28;20175;-74
2022/06/09 12:52:18;;;;;;;7.82;5.15;;;22.10;99.90;;;;;;5076520;28;20213;-73
2022/06/09 12:54:44;;;;;;;6.70;4.60;;;22.00;99.90;;;;;;5074627;28;20199;-73
2022/06/09 12:57:22;;;;;;;6.55;4.53;;;21.90;99.90;;;;;;5055834;28;20213;-73
2022/06/09 13:00:03;;;;;;;6.72;4.50;;;21.60;99.90;;;;;;5073070;28;20222;-74
2022/06/09 13:02:32;;;;;;;7.82;4.97;;;21.40;99.90;;;;;;5055024;28;20717;-73
2022/06/09 13:05:01;;;;;;;6.18;4.82;;;21.40;99.90;;;;;;5055710;28;20253;-74
2022/06/09 13:07:34;;;;;;;7.80;4.45;;;21.30;99.90;;;;;;5055584;28;20266;-74
2022/06/09 13:10:27;;;;;;;6.05;4.90;;;21.10;99.90;;;;;;5055695;28;20225;-73
2022/06/09 13:13:11;;;;;;;7.75;5.78;;;21.10;99.90;;;;;;5050253;28;20226;-73
2022/06/09 13:15:52;;;;;;;5.13;4.55;;;21.00;99.90;;;;;;5050565;28;20194;-73
2022/06/09 13:18:24;;;;;;;6.68;4.97;;;21.10;99.90;;;;;;5054417;28;20311;-73
2022/06/09 13:21:15;;;;;;;5.75;4.63;;;21.30;99.90;;;;;;5054429;28;20206;-73
2022/06/09 13:23:48;;;;;;;7.03;5.07;;;21.20;99.90;;;;;;5053249;28;20222;-71
2022/06/09 13:26:21;;;;;;;5.97;4.57;;;21.40;99.90;;;;;;5072699;28;20309;-72
2022/06/09 13:28:49;;;;;;;6.55;5.07;;;21.60;99.90;;;;;;5054116;28;20178;-70
2022/06/09 13:31:30;;;;;;;11.32;5.72;;;21.60;99.90;;;;;;5055163;28;20171;-72
2022/06/09 13:34:00;;;;;;;7.30;5.35;;;21.60;99.90;;;;;;5072581;28;20206;-72